Flight Track Log - Related Links

Times and Time Zones

All times are in EDT time to prevent confusion due to time zone crossing. See the RPA4880 flight status page for this flight to view local times or setup timezone preferences in your user account.

Time Position Orientation Groundspeed Altitude Reporting Facility
EDT Latitude Longitude Course Direction KTS MPH feet Rate Location/Type
Sun 12:52:38 PM 38.9333 -77.5333 212° Southwest 182 209 3,400  Level Potomac TRACON
Sun 12:53:38 PM 38.8833 -77.5833 218° Southwest 202 232 6,200 1,800 Climbing Potomac TRACON
Sun 12:54:00 PM 38.7041 -77.5917 208° Southwest  Level FlightAware Approximate
Sun 12:54:38 PM 38.8167 -77.6000 191° South 252 290 7,000  Level Potomac TRACON
Sun 12:55:00 PM 38.6265 -77.6435 208° Southwest  Level FlightAware Approximate
Sun 12:55:33 PM 38.7667 -77.6500 218° Southwest 240 276 8,400  Level Potomac TRACON
Sun 12:56:00 PM 38.5480 -77.6927 201° Southwest  Level FlightAware Approximate
Sun 12:56:33 PM 38.7167 -77.6833 207° Southwest 251 289 10,000  Level Potomac TRACON
Sun 12:57:00 PM 38.4696 -77.7410 212° Southwest  Level FlightAware Approximate
Sun 12:57:33 PM 38.6333 -77.7333 205° Southwest 294 338 10,100  Level Potomac TRACON
Sun 12:58:30 PM 38.5725 -77.7797 211° Southwest 295 339 10,000 -52 Descending Washington Center
Sun 12:59:28 PM 38.4986 -77.8281 207° Southwest 301 346 10,000  Level Washington Center
Sun 01:00:29 PM 38.4331 -77.8739 209° Southwest 305 351 10,000  Level Washington Center
Sun 01:01:30 PM 38.3633 -77.9219 208° Southwest 300 345 10,000  Level Washington Center
Sun 01:02:30 PM 38.2936 -77.9675 207° Southwest 288 331 10,000 712 Level Washington Center
Sun 01:03:28 PM 38.2239 -78.0153 208° Southwest 288 331 11,400 1,780 Climbing Washington Center
Sun 01:04:28 PM 38.1583 -78.0608 209° Southwest 288 331 13,500 2,033 Climbing Washington Center
Sun 01:05:29 PM 38.0969 -78.1011 207° Southwest 277 319 15,500 1,918 Climbing Washington Center
Sun 01:06:30 PM 38.0397 -78.1414 209° Southwest 256 295 17,400 1,765 Climbing Washington Center
Sun 01:07:28 PM 37.9850 -78.1736 205° Southwest 242 278 19,000 1,322 Climbing Washington Center
Sun 01:08:28 PM 37.9300 -78.2114 208° Southwest 228 262 20,000 496 Climbing Washington Center
Sun 01:09:29 PM 37.8622 -78.2564 208° Southwest 243 280 20,000  Level Washington Center
Sun 01:10:29 PM 37.7922 -78.3011 207° Southwest 271 312 20,000  Level Washington Center
Sun 01:11:30 PM 37.7183 -78.3483 207° Southwest 291 335 20,000  Level Washington Center
Sun 01:12:30 PM 37.6506 -78.3931 208° Southwest 304 350 20,000  Level Washington Center
Sun 01:13:28 PM 37.5764 -78.4403 207° Southwest 304 350 20,000  Level Washington Center
Sun 01:14:28 PM 37.5022 -78.4872 207° Southwest 304 350 20,000  Level Washington Center
Sun 01:15:28 PM 37.4281 -78.5339 207° Southwest 304 350 20,000  Level Washington Center
Sun 01:16:29 PM 37.3497 -78.5858 208° Southwest 304 350 20,000  Level Washington Center
Sun 01:17:30 PM 37.2733 -78.6325 206° Southwest 304 350 20,000  Level Washington Center
Sun 01:18:28 PM 37.2014 -78.6764 206° Southwest 304 350 20,000  Level Washington Center
Sun 01:19:29 PM 37.1269 -78.7256 208° Southwest 304 350 20,000 -99 Level Washington Center
Sun 01:20:29 PM 37.0528 -78.7747 208° Southwest 304 350 19,800 -793 Descending Washington Center
Sun 01:21:30 PM 36.9847 -78.8186 207° Southwest 304 350 18,400 -1,450 Descending Washington Center
Sun 01:22:29 PM 36.9083 -78.8675 207° Southwest 304 350 16,900 -1,462 Descending Washington Center
Sun 01:23:29 PM 36.8297 -78.9161 206° Southwest 309 356 15,500 -1,300 Descending Washington Center
Sun 01:24:29 PM 36.7517 -78.9514 200° South 304 350 14,300 -1,488 Descending Washington Center
Sun 01:25:30 PM 36.6536 -78.9472 178° South 302 348 12,500 -1,680 Descending Washington Center
Sun 01:26:09 PM 36.5975 -78.9422 176° South 307 353 11,500 -1,500 Descending Washington Center
Sun 01:26:30 PM 36.5722 -78.9439 183° South 302 348 11,000 -1,500 Descending Washington Center
Sun 01:26:45 PM 36.5475 -78.9400 173° South 298 343 10,600 -1,448 Descending Washington Center
Sun 01:27:28 PM 36.4953 -78.9406 180° South 295 339 9,600 -1,269 Descending Washington Center
Sun 01:28:29 PM 36.4203 -78.9397 179° South 282 325 8,400 -1,139 Descending Washington Center
Sun 01:28:47 PM 36.3972 -78.9389 178° South 259 298 8,100 -400 Descending Washington Center
Sun 01:29:29 PM 36.3456 -78.9239 167° South 277 319 8,000 -100 Descending Washington Center
Sun 01:29:47 PM 36.3228 -78.9178 168° South 268 308 8,000  Level Washington Center
Sun 01:30:29 PM 36.2814 -78.9006 161° South 269 310 8,000  Level Washington Center
Sun 01:30:48 PM 36.2503 -78.8939 170° South 271 312 8,000 103 Level Washington Center
Sun 01:31:27 PM 36.2078 -78.8511 141° Southeast 269 310 8,100  Climbing Washington Center
Sun 01:31:49 PM 36.1936 -78.8297 129° Southeast 293 337 8,000 -194 Descending Washington Center
Sun 01:32:29 PM 36.1619 -78.7719 124° Southeast 272 313 7,900 -689 Descending Washington Center
Sun 01:32:50 PM 36.1481 -78.7456 123° Southeast 269 310 7,300 -1,500 Descending Washington Center
Sun 01:33:29 PM 36.1219 -78.7008 126° Southeast 267 307 6,400 -1,200 Descending Washington Center
Sun 01:33:50 PM 36.1039 -78.6769 133° Southeast 251 289 6,100 -885 Descending Washington Center
Sun 01:34:30 PM 36.0839 -78.6378 122° Southeast 253 291 5,500 -984 Descending Washington Center
Sun 01:34:51 PM 36.0658 -78.6139 133° Southeast 217 250 5,100 -500 Descending Washington Center
Sun 01:35:30 PM 36.0411 -78.6025 160° South 197 227 5,000 -600 Descending Washington Center
Sun 01:35:51 PM 36.0242 -78.6147 210° Southwest 176 203 4,500 -1,429 Descending Washington Center

Login

Don't have an account? Register now (free) for customized features, flight alerts, and more!